createdAt,value
2022-11-28T00:01:34.078Z,0.74
2022-11-28T00:04:01.319Z,0.63
2022-11-28T00:06:28.438Z,0.59
2022-11-28T00:08:55.634Z,0.47
2022-11-28T00:11:22.271Z,0.44
2022-11-28T00:13:48.912Z,0.67
2022-11-28T00:16:18.294Z,0.49
2022-11-28T00:18:44.998Z,0.40
2022-11-28T00:21:14.350Z,0.48
2022-11-28T00:23:42.368Z,0.62
2022-11-28T00:26:16.445Z,0.54
2022-11-28T00:28:43.415Z,0.28
2022-11-28T00:31:28.096Z,0.40
2022-11-28T00:33:55.301Z,0.44
2022-11-28T00:36:22.809Z,0.42
2022-11-28T00:38:49.984Z,0.38
2022-11-28T00:41:19.472Z,0.51
2022-11-28T00:43:47.446Z,0.43
2022-11-28T00:46:15.294Z,0.45
2022-11-28T00:48:42.050Z,0.38
2022-11-28T00:51:11.531Z,0.43
2022-11-28T00:53:40.462Z,0.48
2022-11-28T00:56:08.165Z,0.44
2022-11-28T00:58:35.605Z,0.41
2022-11-28T01:01:15.802Z,0.39
2022-11-28T01:03:43.246Z,0.32
2022-11-28T01:06:11.014Z,0.39
2022-11-28T01:08:38.139Z,0.30
2022-11-28T01:11:12.096Z,0.14
2022-11-28T01:13:39.748Z,0.32
2022-11-28T01:16:07.380Z,0.32
2022-11-28T01:18:34.426Z,0.22
2022-11-28T01:21:01.144Z,0.03
2022-11-28T01:23:27.931Z,0.09
2022-11-28T01:25:54.560Z,0.25
2022-11-28T01:28:21.221Z,0.11
2022-11-28T01:30:47.838Z,0.15
2022-11-28T01:33:14.533Z,0.06
2022-11-28T01:35:41.292Z,0.16
2022-11-28T01:38:07.929Z,0.12
2022-11-28T01:40:34.501Z,0.04
2022-11-28T01:43:01.093Z,0.20
2022-11-28T01:45:32.531Z,0.25
2022-11-28T01:48:03.319Z,0.20
2022-11-28T01:50:32.082Z,0.09
2022-11-28T01:53:04.620Z,0.15
2022-11-28T01:55:35.465Z,0.11
2022-11-28T01:58:02.153Z,0.14
2022-11-28T02:00:28.858Z,0.18
2022-11-28T02:03:15.370Z,0.15
2022-11-28T02:05:42.174Z,0.17
2022-11-28T02:08:10.050Z,0.00
2022-11-28T02:11:14.281Z,0.05
2022-11-28T02:14:02.907Z,-0.05
2022-11-28T02:16:48.430Z,0.00
2022-11-28T02:19:20.870Z,0.00
2022-11-28T02:21:50.583Z,-0.07
2022-11-28T02:25:08.860Z,-0.12
2022-11-28T02:28:01.686Z,-0.11
2022-11-28T02:30:51.298Z,-0.25
2022-11-28T02:33:20.807Z,-0.24
2022-11-28T02:35:55.009Z,-0.08
2022-11-28T02:38:27.557Z,0.02
2022-11-28T02:41:12.109Z,-0.04
2022-11-28T02:43:53.050Z,-0.01
2022-11-28T02:46:48.714Z,-0.17
2022-11-28T02:49:36.261Z,-0.12
2022-11-28T02:52:45.385Z,-0.12
2022-11-28T02:55:13.576Z,-0.04
2022-11-28T02:57:46.918Z,-0.20
2022-11-28T03:00:34.813Z,-0.05
2022-11-28T03:03:01.425Z,0.04
2022-11-28T03:05:43.246Z,0.06
2022-11-28T03:09:06.866Z,-0.02
2022-11-28T03:12:11.980Z,-0.03
2022-11-28T03:15:00.447Z,-0.09
2022-11-28T03:17:36.130Z,0.03
2022-11-28T03:20:17.288Z,0.02
2022-11-28T03:22:49.756Z,-0.14
2022-11-28T03:25:39.318Z,-0.10
2022-11-28T03:28:19.542Z,-0.11
2022-11-28T03:30:52.551Z,-0.25
2022-11-28T03:33:22.234Z,-0.11
2022-11-28T03:35:54.398Z,-0.13
2022-11-28T03:38:28.520Z,-0.22
2022-11-28T03:40:59.852Z,0.08
2022-11-28T03:43:32.873Z,0.00
2022-11-28T03:46:04.244Z,0.01
2022-11-28T03:48:34.917Z,0.09
2022-11-28T03:51:21.564Z,0.09
2022-11-28T03:53:56.921Z,0.13
2022-11-28T03:56:47.410Z,0.16
2022-11-28T03:59:21.590Z,0.12
2022-11-28T04:01:58.374Z,0.08
2022-11-28T04:04:50.866Z,-0.02
2022-11-28T04:07:52.786Z,0.01
2022-11-28T04:10:34.557Z,-0.01
2022-11-28T04:13:23.005Z,-0.04
2022-11-28T04:16:19.377Z,0.05
2022-11-28T04:19:10.645Z,0.05
2022-11-28T04:22:05.127Z,0.17
2022-11-28T04:24:37.341Z,0.07
2022-11-28T04:27:11.224Z,0.01
2022-11-28T04:29:44.657Z,-0.04
2022-11-28T04:32:13.967Z,-0.25
2022-11-28T04:34:45.470Z,-0.02
2022-11-28T04:37:15.118Z,0.08
2022-11-28T04:39:44.859Z,0.06
2022-11-28T04:42:26.497Z,-0.04
2022-11-28T04:45:02.760Z,-0.09
2022-11-28T04:47:29.962Z,0.02
2022-11-28T04:49:56.690Z,-0.16
2022-11-28T04:52:39.128Z,-0.13
2022-11-28T04:55:40.660Z,-0.10
2022-11-28T04:58:19.369Z,-0.09
2022-11-28T05:00:49.709Z,-0.12
2022-11-28T05:03:17.360Z,-0.12
2022-11-28T05:05:49.713Z,-0.08
2022-11-28T05:08:17.604Z,-0.07
2022-11-28T05:10:44.633Z,-0.16
2022-11-28T05:13:11.224Z,-0.01
2022-11-28T05:15:37.873Z,-0.04
2022-11-28T05:18:05.065Z,0.19
2022-11-28T05:20:32.176Z,0.19
2022-11-28T05:22:58.857Z,0.15
2022-11-28T05:25:25.558Z,0.06
2022-11-28T05:27:52.198Z,0.21
2022-11-28T05:30:18.845Z,-0.19
2022-11-28T05:32:45.379Z,-0.09
2022-11-28T05:35:12.048Z,0.07
2022-11-28T05:37:39.011Z,-0.11
2022-11-28T05:40:06.532Z,0.01
2022-11-28T05:42:35.246Z,0.02
2022-11-28T05:45:02.520Z,0.17
2022-11-28T05:47:33.160Z,0.11
2022-11-28T05:49:59.892Z,0.04
2022-11-28T05:52:29.679Z,-0.02
2022-11-28T05:54:56.435Z,-0.01
2022-11-28T05:57:23.093Z,-0.08
2022-11-28T05:59:49.699Z,-0.35
2022-11-28T06:02:16.379Z,-0.15
2022-11-28T06:04:43.180Z,-0.04
2022-11-28T06:07:09.781Z,0.11
2022-11-28T06:09:39.408Z,-0.12
2022-11-28T06:12:06.293Z,-0.04
2022-11-28T06:14:32.945Z,0.17
2022-11-28T06:16:59.681Z,0.19
2022-11-28T06:19:26.396Z,-0.02
2022-11-28T06:21:53.569Z,0.11
2022-11-28T06:24:20.141Z,0.08
2022-11-28T06:26:46.964Z,0.28
2022-11-28T06:29:13.629Z,0.28
2022-11-28T06:31:40.349Z,0.12
2022-11-28T06:34:06.991Z,0.03
2022-11-28T06:36:34.037Z,0.07
2022-11-28T06:39:00.641Z,0.23
2022-11-28T06:41:27.230Z,0.20
2022-11-28T06:43:53.828Z,0.43
2022-11-28T06:46:21.742Z,0.27
2022-11-28T06:48:51.168Z,0.29
2022-11-28T06:51:19.310Z,0.29
2022-11-28T06:53:45.898Z,0.33
2022-11-28T06:56:15.480Z,0.41
2022-11-28T06:58:43.197Z,0.19
2022-11-28T07:01:14.638Z,0.21
2022-11-28T07:03:41.956Z,0.45
2022-11-28T07:06:08.931Z,0.38
2022-11-28T07:08:35.866Z,0.27
2022-11-28T07:11:17.034Z,0.22
2022-11-28T07:13:45.838Z,0.23
2022-11-28T07:16:22.030Z,0.01
2022-11-28T07:18:48.906Z,0.24
2022-11-28T07:21:16.376Z,-0.01
2022-11-28T07:23:44.088Z,0.04
2022-11-28T07:26:12.939Z,0.24
2022-11-28T07:28:39.770Z,-0.02
2022-11-28T07:31:12.386Z,-0.01
2022-11-28T07:33:41.209Z,-0.05
2022-11-28T07:36:12.429Z,0.27
2022-11-28T07:38:39.001Z,0.14
2022-11-28T07:41:08.268Z,0.22
2022-11-28T07:43:34.973Z,0.10
2022-11-28T07:46:10.821Z,0.20
2022-11-28T07:48:37.701Z,0.20
2022-11-28T07:51:10.371Z,0.43
2022-11-28T07:53:37.804Z,0.55
2022-11-28T07:56:07.021Z,0.44
2022-11-28T07:58:34.808Z,0.23
2022-11-28T08:01:11.282Z,0.34
2022-11-28T08:03:38.002Z,0.28
2022-11-28T08:06:05.675Z,0.56
2022-11-28T08:08:33.105Z,0.38
2022-11-28T08:11:01.823Z,0.52
2022-11-28T08:13:28.579Z,0.74
2022-11-28T08:15:55.576Z,0.69
2022-11-28T08:18:22.620Z,0.70
2022-11-28T08:20:49.414Z,0.56
2022-11-28T08:23:16.073Z,0.71
2022-11-28T08:25:42.669Z,0.74
2022-11-28T08:28:09.268Z,0.43
2022-11-28T08:30:35.911Z,0.35
2022-11-28T08:33:02.554Z,0.52
2022-11-28T08:35:29.135Z,0.48
2022-11-28T08:38:00.487Z,0.45
2022-11-28T08:40:28.798Z,0.59
2022-11-28T08:42:55.827Z,0.76
2022-11-28T08:45:22.455Z,0.71
2022-11-28T08:47:49.114Z,0.83
2022-11-28T08:50:15.821Z,0.91
2022-11-28T08:52:42.417Z,0.73
2022-11-28T08:55:09.399Z,0.93
2022-11-28T08:57:35.958Z,0.89
2022-11-28T09:00:02.815Z,0.64
2022-11-28T09:02:29.484Z,0.50
2022-11-28T09:04:56.147Z,0.50
2022-11-28T09:07:22.754Z,0.36
2022-11-28T09:09:49.706Z,0.69
2022-11-28T09:12:16.796Z,0.49
2022-11-28T09:14:43.395Z,0.46
2022-11-28T09:17:10.060Z,0.53
2022-11-28T09:19:36.808Z,0.58
2022-11-28T09:22:03.374Z,0.77
2022-11-28T09:24:29.953Z,0.86
2022-11-28T09:26:56.826Z,0.64
2022-11-28T09:29:23.446Z,0.77
2022-11-28T09:31:50.047Z,0.87
2022-11-28T09:34:16.627Z,0.78
2022-11-28T09:36:43.389Z,0.84
2022-11-28T09:39:10.152Z,0.90
2022-11-28T09:41:58.802Z,0.97
2022-11-28T09:44:45.422Z,1.08
2022-11-28T09:47:25.856Z,0.94
2022-11-28T09:49:58.070Z,0.95
2022-11-28T09:52:43.142Z,1.16
2022-11-28T09:55:39.693Z,1.12
2022-11-28T09:58:19.186Z,1.30
2022-11-28T10:00:56.159Z,1.42
2022-11-28T10:03:43.520Z,1.26
2022-11-28T10:06:39.303Z,1.46
2022-11-28T10:09:22.563Z,1.42
2022-11-28T10:12:07.457Z,1.18
2022-11-28T10:14:46.381Z,1.62
2022-11-28T10:17:40.962Z,1.89
2022-11-28T10:20:13.983Z,1.52
2022-11-28T10:22:53.819Z,1.61
2022-11-28T10:25:44.896Z,1.46
2022-11-28T10:28:16.666Z,1.67
2022-11-28T10:30:48.825Z,1.57
2022-11-28T10:33:25.285Z,1.58
2022-11-28T10:35:56.085Z,1.65
2022-11-28T10:38:27.356Z,1.76
2022-11-28T10:41:04.796Z,1.96
2022-11-28T10:43:48.696Z,1.88
2022-11-28T10:46:40.045Z,1.90
2022-11-28T10:49:22.773Z,1.68
2022-11-28T10:51:50.037Z,2.06
2022-11-28T10:54:38.428Z,2.10
2022-11-28T10:57:27.666Z,2.22
2022-11-28T11:00:10.694Z,2.31
2022-11-28T11:02:45.963Z,1.76
2022-11-28T11:05:28.176Z,2.19
2022-11-28T11:08:12.996Z,2.16
2022-11-28T11:11:05.539Z,2.08
2022-11-28T11:13:36.077Z,1.90
2022-11-28T11:16:11.531Z,2.17
2022-11-28T11:18:53.749Z,2.38
2022-11-28T11:21:24.433Z,2.50
2022-11-28T11:24:12.659Z,2.45
2022-11-28T11:26:43.998Z,2.51
2022-11-28T11:29:37.299Z,1.97
2022-11-28T11:32:06.485Z,2.23
2022-11-28T11:34:53.897Z,2.48
2022-11-28T11:37:20.638Z,2.60
2022-11-28T11:39:52.408Z,2.61
2022-11-28T11:42:26.589Z,2.52
2022-11-28T11:44:54.139Z,2.40
2022-11-28T11:47:40.673Z,2.46
2022-11-28T11:50:16.422Z,2.51
2022-11-28T11:52:43.117Z,2.51
2022-11-28T11:55:16.116Z,2.46
2022-11-28T11:57:54.394Z,2.60
2022-11-28T12:00:25.210Z,2.59
2022-11-28T12:03:04.732Z,2.60
2022-11-28T12:06:12.162Z,2.37
2022-11-28T12:08:38.073Z,2.36
2022-11-28T12:11:16.612Z,2.26
2022-11-28T12:13:43.562Z,2.26
2022-11-28T12:16:16.202Z,2.52
2022-11-28T12:19:01.341Z,2.53
2022-11-28T12:21:37.086Z,2.44
2022-11-28T12:24:09.932Z,2.61
2022-11-28T12:26:41.720Z,2.59
2022-11-28T12:29:26.543Z,2.61
2022-11-28T12:32:14.311Z,2.37
2022-11-28T12:35:02.656Z,2.42
2022-11-28T12:41:03.387Z,2.45
2022-11-28T12:43:48.208Z,2.47
2022-11-28T12:46:26.830Z,2.50
2022-11-28T12:49:19.062Z,2.72
2022-11-28T12:51:45.601Z,2.74
2022-11-28T12:54:42.420Z,2.59
2022-11-28T12:57:20.941Z,2.95
2022-11-28T13:00:11.335Z,2.83
2022-11-28T13:02:59.651Z,2.88
2022-11-28T13:05:44.910Z,2.80
2022-11-28T13:08:34.460Z,2.89
2022-11-28T13:11:23.866Z,2.54
2022-11-28T13:14:05.251Z,2.59
2022-11-28T13:16:39.877Z,2.72
2022-11-28T13:19:15.418Z,2.80
2022-11-28T13:21:55.705Z,2.69
2022-11-28T13:24:31.360Z,2.81
2022-11-28T13:27:22.151Z,2.67
2022-11-28T13:30:15.377Z,2.63
2022-11-28T13:32:49.107Z,2.59
2022-11-28T13:35:18.710Z,2.65
2022-11-28T13:40:53.167Z,2.92
2022-11-28T13:43:46.411Z,2.83
2022-11-28T13:46:14.286Z,2.79
2022-11-28T13:51:32.990Z,2.81
2022-11-28T13:54:19.158Z,2.90
2022-11-28T13:56:48.038Z,2.76
2022-11-28T13:59:23.140Z,2.70
2022-11-28T14:01:58.943Z,2.64
2022-11-28T14:04:27.993Z,2.52
2022-11-28T14:07:02.319Z,2.72
2022-11-28T14:09:52.264Z,2.79
2022-11-28T14:12:25.003Z,2.81
2022-11-28T14:15:10.972Z,2.75
2022-11-28T14:18:47.796Z,2.73
2022-11-28T14:21:23.947Z,2.78
2022-11-28T14:24:06.513Z,2.67
2022-11-28T14:26:36.978Z,2.47
2022-11-28T14:29:06.458Z,2.45
2022-11-28T14:31:40.160Z,2.52
2022-11-28T14:34:30.950Z,2.39
2022-11-28T14:37:19.551Z,2.55
2022-11-28T14:39:48.686Z,2.23
2022-11-28T14:42:36.802Z,2.38
2022-11-28T14:45:23.230Z,2.27
2022-11-28T14:48:15.582Z,2.28
2022-11-28T14:50:42.268Z,2.22
2022-11-28T14:53:33.843Z,2.19
2022-11-28T14:56:13.570Z,2.22
2022-11-28T14:58:47.385Z,2.01
2022-11-28T15:01:25.044Z,2.22
2022-11-28T15:04:03.183Z,2.12
2022-11-28T15:06:36.033Z,2.12
2022-11-28T15:09:07.157Z,2.02
2022-11-28T15:11:59.335Z,2.00
2022-11-28T15:14:28.901Z,1.89
2022-11-28T15:17:00.488Z,2.05
2022-11-28T15:19:34.669Z,2.08
2022-11-28T15:22:01.690Z,1.95
2022-11-28T15:24:35.588Z,1.87
2022-11-28T15:27:08.760Z,1.94
2022-11-28T15:29:36.800Z,1.84
2022-11-28T15:32:04.916Z,1.72
2022-11-28T15:34:34.740Z,1.74
2022-11-28T15:37:05.947Z,1.72
2022-11-28T15:39:39.403Z,1.88
2022-11-28T15:42:18.168Z,1.71
2022-11-28T15:44:45.882Z,1.73
2022-11-28T15:47:19.802Z,1.64
2022-11-28T15:49:57.760Z,1.80
2022-11-28T15:52:24.430Z,1.75
2022-11-28T15:54:51.525Z,1.53
2022-11-28T15:57:28.340Z,1.51
2022-11-28T15:59:56.588Z,1.63
2022-11-28T16:02:33.936Z,1.52
2022-11-28T16:05:16.067Z,1.39
2022-11-28T16:07:44.287Z,1.61
2022-11-28T16:10:28.324Z,1.61
2022-11-28T16:13:04.610Z,1.57
2022-11-28T16:15:31.699Z,1.37
2022-11-28T16:17:58.500Z,1.54
2022-11-28T16:20:28.444Z,1.56
2022-11-28T16:22:59.966Z,1.43
2022-11-28T16:25:27.233Z,1.58
2022-11-28T16:27:57.254Z,1.40
2022-11-28T16:30:41.938Z,1.64
2022-11-28T16:33:53.681Z,1.56
2022-11-28T16:36:36.893Z,1.66
2022-11-28T16:39:14.918Z,1.33
2022-11-28T16:41:54.741Z,1.42
2022-11-28T16:44:24.829Z,1.44
2022-11-28T16:46:57.053Z,1.29
2022-11-28T16:49:36.452Z,1.41
2022-11-28T16:52:24.127Z,1.46
2022-11-28T16:54:51.961Z,1.25
2022-11-28T16:57:20.222Z,1.32
2022-11-28T16:59:48.152Z,1.35
2022-11-28T17:02:22.976Z,1.25
2022-11-28T17:04:51.676Z,1.28
2022-11-28T17:07:21.947Z,1.21
2022-11-28T17:09:49.924Z,1.32
2022-11-28T17:12:29.911Z,1.36
2022-11-28T17:14:58.309Z,1.22
2022-11-28T17:17:25.662Z,1.21
2022-11-28T17:19:52.407Z,1.27
2022-11-28T17:22:23.139Z,1.30
2022-11-28T17:24:51.825Z,1.31
2022-11-28T17:27:18.569Z,0.92
2022-11-28T17:29:45.319Z,1.18
2022-11-28T17:32:13.570Z,1.19
2022-11-28T17:34:42.165Z,1.06
2022-11-28T17:37:09.828Z,1.21
2022-11-28T17:39:36.501Z,1.04
2022-11-28T17:42:03.709Z,1.15
2022-11-28T17:44:37.509Z,1.14
2022-11-28T17:47:04.727Z,0.94
2022-11-28T17:49:31.636Z,0.98
2022-11-28T17:51:58.848Z,1.05
2022-11-28T17:54:26.679Z,1.19
2022-11-28T17:56:54.126Z,1.21
2022-11-28T17:59:23.594Z,1.19
2022-11-28T18:01:50.764Z,1.22
2022-11-28T18:04:23.175Z,1.21
2022-11-28T18:06:49.990Z,1.21
2022-11-28T18:09:16.748Z,0.96
2022-11-28T18:11:46.414Z,1.03
2022-11-28T18:14:13.406Z,1.10
2022-11-28T18:16:42.895Z,1.27
2022-11-28T18:19:10.369Z,1.04
2022-11-28T18:21:37.265Z,1.26
2022-11-28T18:24:04.697Z,1.14
2022-11-28T18:26:31.832Z,1.07
2022-11-28T18:28:58.608Z,1.06
2022-11-28T18:31:28.683Z,1.16
2022-11-28T18:34:04.076Z,1.19
2022-11-28T18:36:36.474Z,1.19
2022-11-28T18:39:14.520Z,0.95
2022-11-28T18:41:41.936Z,1.04
2022-11-28T18:44:10.675Z,0.96
2022-11-28T18:46:39.164Z,0.86
2022-11-28T18:49:06.127Z,0.91
2022-11-28T18:51:34.549Z,1.22
2022-11-28T18:54:04.113Z,1.08
2022-11-28T18:56:31.691Z,0.93
2022-11-28T18:58:59.073Z,1.09
2022-11-28T19:01:28.645Z,1.19
2022-11-28T19:04:03.968Z,1.10
2022-11-28T19:06:31.093Z,1.25
2022-11-28T19:09:00.804Z,1.21
2022-11-28T19:11:29.422Z,1.01
2022-11-28T19:13:57.103Z,0.98
2022-11-28T19:16:29.042Z,1.21
2022-11-28T19:18:55.888Z,1.03
2022-11-28T19:21:26.065Z,1.11
2022-11-28T19:23:55.164Z,1.14
2022-11-28T19:26:25.403Z,1.21
2022-11-28T19:28:54.055Z,1.14
2022-11-28T19:31:27.229Z,1.22
2022-11-28T19:34:02.378Z,1.17
2022-11-28T19:36:33.544Z,1.17
2022-11-28T19:39:00.851Z,0.97
2022-11-28T19:41:29.212Z,0.90
2022-11-28T19:43:57.401Z,1.28
2022-11-28T19:46:24.754Z,1.15
2022-11-28T19:48:51.907Z,1.05
2022-11-28T19:51:19.447Z,1.13
2022-11-28T19:53:46.844Z,1.21
2022-11-28T19:56:20.023Z,1.09
2022-11-28T19:58:47.125Z,1.12
2022-11-28T20:01:19.478Z,1.18
2022-11-28T20:03:50.086Z,1.00
2022-11-28T20:06:21.330Z,1.11
2022-11-28T20:08:49.408Z,0.81
2022-11-28T20:11:36.936Z,1.06
2022-11-28T20:14:06.805Z,0.93
2022-11-28T20:16:35.432Z,0.91
2022-11-28T20:19:05.010Z,0.94
2022-11-28T20:21:34.167Z,1.00
2022-11-28T20:24:05.147Z,0.94
2022-11-28T20:26:38.338Z,1.06
2022-11-28T20:29:06.161Z,0.87
2022-11-28T20:31:38.631Z,1.02
2022-11-28T20:34:06.447Z,0.92
2022-11-28T20:36:33.814Z,0.72
2022-11-28T20:39:01.231Z,1.00
2022-11-28T20:41:32.112Z,1.06
2022-11-28T20:44:04.306Z,0.97
2022-11-28T20:46:34.169Z,0.76
2022-11-28T20:49:03.383Z,1.07
2022-11-28T20:51:32.056Z,1.13
2022-11-28T20:53:59.670Z,0.78
2022-11-28T20:56:31.977Z,1.07
2022-11-28T20:59:00.646Z,1.03
2022-11-28T21:01:34.469Z,1.13
2022-11-28T21:04:03.477Z,0.94
2022-11-28T21:06:30.697Z,1.13
2022-11-28T21:08:57.775Z,1.09
2022-11-28T21:11:50.558Z,1.05
2022-11-28T21:14:14.321Z,0.94
2022-11-28T21:16:41.815Z,1.05
2022-11-28T21:19:09.506Z,1.15
2022-11-28T21:21:39.503Z,1.22
2022-11-28T21:24:11.993Z,1.02
2022-11-28T21:26:43.994Z,0.92
2022-11-28T21:29:13.464Z,0.86
2022-11-28T21:31:43.092Z,0.79
2022-11-28T21:34:16.482Z,0.94
2022-11-28T21:36:43.548Z,1.02
2022-11-28T21:39:13.746Z,0.89
2022-11-28T21:41:40.440Z,0.99
2022-11-28T21:44:07.708Z,0.76
2022-11-28T21:46:34.347Z,1.01
2022-11-28T21:49:04.605Z,0.88
2022-11-28T21:51:32.784Z,0.96
2022-11-28T21:53:59.672Z,0.98
2022-11-28T21:56:26.997Z,0.89
2022-11-28T21:58:54.073Z,0.71
2022-11-28T22:01:21.487Z,1.00
2022-11-28T22:03:49.107Z,0.75
2022-11-28T22:06:20.064Z,1.02
2022-11-28T22:08:51.617Z,1.01
2022-11-28T22:11:19.677Z,0.86
2022-11-28T22:13:47.175Z,0.76
2022-11-28T22:16:34.063Z,1.01
2022-11-28T22:19:01.530Z,1.08
2022-11-28T22:21:51.166Z,0.93
2022-11-28T22:24:15.197Z,0.92
2022-11-28T22:26:43.376Z,0.91
2022-11-28T22:29:10.065Z,1.03
2022-11-28T22:31:37.567Z,1.08
2022-11-28T22:34:04.353Z,1.13
2022-11-28T22:36:32.216Z,1.04
2022-11-28T22:38:59.085Z,0.97
2022-11-28T22:41:29.206Z,0.98
2022-11-28T22:44:00.831Z,0.98
2022-11-28T22:46:29.601Z,1.02
2022-11-28T22:48:59.955Z,1.13
2022-11-28T22:51:28.277Z,0.93
2022-11-28T22:54:00.734Z,1.14
2022-11-28T22:56:30.193Z,1.10
2022-11-28T22:58:58.371Z,1.04
2022-11-28T23:01:28.516Z,1.07
2022-11-28T23:03:55.688Z,0.91
2022-11-28T23:06:26.193Z,1.01
2022-11-28T23:08:57.621Z,0.71
2022-11-28T23:11:30.304Z,1.14
2022-11-28T23:13:58.298Z,0.91
2022-11-28T23:16:34.131Z,1.19
2022-11-28T23:19:05.830Z,1.29
2022-11-28T23:21:35.348Z,1.35
2022-11-28T23:24:03.160Z,0.91
2022-11-28T23:26:31.618Z,1.31
2022-11-28T23:29:03.087Z,1.28
2022-11-28T23:31:32.677Z,1.18
2022-11-28T23:34:01.305Z,1.21
2022-11-28T23:36:42.497Z,1.21
2022-11-28T23:39:16.342Z,1.13
2022-11-28T23:41:43.904Z,1.00
2022-11-28T23:44:12.317Z,1.17
2022-11-28T23:46:39.411Z,1.15
2022-11-28T23:49:06.819Z,1.13
2022-11-28T23:51:33.701Z,1.14
2022-11-28T23:54:00.645Z,0.91
2022-11-28T23:56:29.613Z,1.04
2022-11-28T23:58:57.391Z,1.07
